createdAt,value
2023-10-23T00:02:09.928Z,3.75
2023-10-23T00:04:36.616Z,5.67
2023-10-23T00:07:03.460Z,3.75
2023-10-23T00:09:29.939Z,3.67
2023-10-23T00:11:56.432Z,4.93
2023-10-23T00:14:22.820Z,5.38
2023-10-23T00:16:49.266Z,4.57
2023-10-23T00:19:16.124Z,4.05
2023-10-23T00:21:43.869Z,5.97
2023-10-23T00:24:10.386Z,3.72
2023-10-23T00:26:36.842Z,3.47
2023-10-23T00:29:03.374Z,4.43
2023-10-23T00:31:29.816Z,4.88
2023-10-23T00:33:56.419Z,4.10
2023-10-23T00:36:23.032Z,3.72
2023-10-23T00:38:49.476Z,3.85
2023-10-23T00:41:15.910Z,4.80
2023-10-23T00:43:42.581Z,3.35
2023-10-23T00:46:16.336Z,4.72
2023-10-23T00:48:44.184Z,5.45
2023-10-23T00:51:13.481Z,5.57
2023-10-23T00:53:42.730Z,5.33
2023-10-23T00:56:10.736Z,5.57
2023-10-23T00:58:40.204Z,4.90
2023-10-23T01:01:10.516Z,5.60
2023-10-23T01:03:37.099Z,4.18
2023-10-23T01:06:04.078Z,4.23
2023-10-23T01:08:31.583Z,6.50
2023-10-23T01:10:59.738Z,5.15
2023-10-23T01:13:27.191Z,3.97
2023-10-23T01:15:54.598Z,3.40
2023-10-23T01:18:21.355Z,3.47
2023-10-23T01:20:48.515Z,3.15
2023-10-23T01:23:15.145Z,4.07
2023-10-23T01:25:41.612Z,4.68
2023-10-23T01:28:08.130Z,3.60
2023-10-23T01:30:34.705Z,4.00
2023-10-23T01:33:01.328Z,3.03
2023-10-23T01:35:27.886Z,4.32
2023-10-23T01:37:54.411Z,4.25
2023-10-23T01:40:20.935Z,4.95
2023-10-23T01:42:48.077Z,4.47
2023-10-23T01:45:14.571Z,4.82
2023-10-23T01:47:41.184Z,6.05
2023-10-23T01:50:08.010Z,6.70
2023-10-23T01:52:34.594Z,5.32
2023-10-23T01:55:01.052Z,4.73
2023-10-23T01:57:27.710Z,5.53
2023-10-23T01:59:54.260Z,4.32
2023-10-23T02:02:20.652Z,5.07
2023-10-23T02:04:47.187Z,4.55
2023-10-23T02:07:13.655Z,6.43
2023-10-23T02:09:40.301Z,4.65
2023-10-23T02:12:07.106Z,6.93
2023-10-23T02:14:33.498Z,4.80
2023-10-23T02:17:00.003Z,4.25
2023-10-23T02:19:26.385Z,5.17
2023-10-23T02:21:53.007Z,5.75
2023-10-23T02:24:20.812Z,4.32
2023-10-23T02:26:48.281Z,5.38
2023-10-23T02:29:15.510Z,4.55
2023-10-23T02:31:42.014Z,4.40
2023-10-23T02:34:08.665Z,3.88
2023-10-23T02:36:35.261Z,4.00
2023-10-23T02:39:01.804Z,5.28
2023-10-23T02:41:31.932Z,4.38
2023-10-23T02:43:58.685Z,3.87
2023-10-23T02:46:25.188Z,4.28
2023-10-23T02:48:51.935Z,4.53
2023-10-23T02:51:19.114Z,5.57
2023-10-23T02:53:46.075Z,3.33
2023-10-23T02:56:14.202Z,3.97
2023-10-23T02:58:40.750Z,4.20
2023-10-23T03:01:21.693Z,4.13
2023-10-23T03:03:49.498Z,4.32
2023-10-23T03:06:16.232Z,2.83
2023-10-23T03:08:42.947Z,5.13
2023-10-23T03:11:09.603Z,4.15
2023-10-23T03:13:36.207Z,4.68
2023-10-23T03:16:02.815Z,3.28
2023-10-23T03:18:29.656Z,8.80
2023-10-23T03:21:03.200Z,3.47
2023-10-23T03:23:31.362Z,4.82
2023-10-23T03:25:58.133Z,4.70
2023-10-23T03:28:24.848Z,4.35
2023-10-23T03:30:51.506Z,4.50
2023-10-23T03:33:18.574Z,4.73
2023-10-23T03:35:45.572Z,3.63
2023-10-23T03:38:13.794Z,4.82
2023-10-23T03:40:40.365Z,3.13
2023-10-23T03:43:06.815Z,4.07
2023-10-23T03:45:37.699Z,5.20
2023-10-23T03:48:04.503Z,5.80
2023-10-23T03:50:31.510Z,5.10
2023-10-23T03:52:58.448Z,5.22
2023-10-23T03:55:25.075Z,3.83
2023-10-23T03:57:51.529Z,5.67
2023-10-23T04:00:18.260Z,3.63
2023-10-23T04:02:44.762Z,4.72
2023-10-23T04:05:11.403Z,3.72
2023-10-23T04:07:38.018Z,3.70
2023-10-23T04:10:08.572Z,3.73
2023-10-23T04:12:35.067Z,5.18
2023-10-23T04:15:01.578Z,5.32
2023-10-23T04:17:28.151Z,4.55
2023-10-23T04:19:54.692Z,3.40
2023-10-23T04:22:21.131Z,5.30
2023-10-23T04:24:48.534Z,5.07
2023-10-23T04:27:15.648Z,7.05
2023-10-23T04:29:42.130Z,7.60
2023-10-23T04:32:09.050Z,4.20
2023-10-23T04:34:35.499Z,3.57
2023-10-23T04:37:01.935Z,3.78
2023-10-23T04:39:28.389Z,5.10
2023-10-23T04:41:55.016Z,5.85
2023-10-23T04:44:21.856Z,6.50
2023-10-23T04:46:48.410Z,6.53
2023-10-23T04:49:14.888Z,5.70
2023-10-23T04:51:41.451Z,5.47
2023-10-23T04:54:08.084Z,4.47
2023-10-23T04:56:34.630Z,5.55
2023-10-23T04:59:01.091Z,5.43
2023-10-23T05:01:27.703Z,4.90
2023-10-23T05:03:54.527Z,7.28
2023-10-23T05:06:26.321Z,10.68
2023-10-23T05:08:53.738Z,9.55
2023-10-23T05:11:20.780Z,9.90
2023-10-23T05:13:47.418Z,10.40
2023-10-23T05:16:14.344Z,8.48
2023-10-23T05:18:41.099Z,18.48
2023-10-23T05:21:12.106Z,20.30
2023-10-23T05:23:39.516Z,19.30
2023-10-23T05:26:06.293Z,12.55
2023-10-23T05:28:33.081Z,18.75
2023-10-23T05:30:59.685Z,14.88
2023-10-23T05:33:26.302Z,13.10
2023-10-23T05:36:05.784Z,30.63
2023-10-23T05:38:33.285Z,14.85
2023-10-23T05:41:00.626Z,14.02
2023-10-23T05:43:30.003Z,14.65
2023-10-23T05:45:57.868Z,13.65
2023-10-23T05:48:24.989Z,16.97
2023-10-23T05:51:02.805Z,13.45
2023-10-23T05:53:29.375Z,22.05
2023-10-23T05:56:02.149Z,40.67
2023-10-23T05:58:28.618Z,22.25
2023-10-23T06:00:55.269Z,33.53
2023-10-23T06:03:22.009Z,23.75
2023-10-23T06:05:48.547Z,26.42
2023-10-23T06:08:15.116Z,37.03
2023-10-23T06:10:45.587Z,29.45
2023-10-23T06:13:12.715Z,45.97
2023-10-23T06:15:40.247Z,28.65
2023-10-23T06:18:07.875Z,19.70
2023-10-23T06:20:35.562Z,29.77
2023-10-23T06:23:02.224Z,23.08
2023-10-23T06:25:30.340Z,34.97
2023-10-23T06:27:57.293Z,35.35
2023-10-23T06:30:23.925Z,29.88
2023-10-23T06:32:50.594Z,49.97
2023-10-23T06:35:17.674Z,69.35
2023-10-23T06:37:45.728Z,54.90
2023-10-23T06:40:12.493Z,67.55
2023-10-23T06:42:39.012Z,59.85
2023-10-23T06:45:06.363Z,78.05
2023-10-23T06:47:33.061Z,45.08
2023-10-23T06:50:00.854Z,48.23
2023-10-23T06:52:27.305Z,54.42
2023-10-23T06:54:53.756Z,38.58
2023-10-23T06:57:20.485Z,28.13
2023-10-23T06:59:47.322Z,80.00
2023-10-23T07:02:13.964Z,28.50
2023-10-23T07:04:40.695Z,35.25
2023-10-23T07:07:17.865Z,28.90
2023-10-23T07:09:45.466Z,62.38
2023-10-23T07:12:12.261Z,75.95
2023-10-23T07:14:38.928Z,64.40
2023-10-23T07:17:05.822Z,63.90
2023-10-23T07:19:32.273Z,65.97
2023-10-23T07:21:58.673Z,59.83
2023-10-23T07:24:25.128Z,47.13
2023-10-23T07:26:51.721Z,54.47
2023-10-23T07:29:18.672Z,41.38
2023-10-23T07:31:45.223Z,57.78
2023-10-23T07:34:11.750Z,41.33
2023-10-23T07:36:38.814Z,52.47
2023-10-23T07:39:05.340Z,44.17
2023-10-23T07:41:31.999Z,40.22
2023-10-23T07:43:58.526Z,22.23
2023-10-23T07:46:25.042Z,20.90
2023-10-23T07:48:51.619Z,25.75
2023-10-23T07:51:18.263Z,53.40
2023-10-23T07:53:44.835Z,33.80
2023-10-23T07:56:13.948Z,26.35
2023-10-23T07:58:40.809Z,37.28
2023-10-23T08:01:08.683Z,34.80
2023-10-23T08:03:36.538Z,33.93
2023-10-23T08:06:04.893Z,33.22
2023-10-23T08:08:39.360Z,42.65
2023-10-23T08:11:08.090Z,27.67
2023-10-23T08:13:35.471Z,30.55
2023-10-23T08:16:02.733Z,19.47
2023-10-23T08:20:58.805Z,33.45
2023-10-23T08:23:25.432Z,23.85
2023-10-23T08:25:51.909Z,18.13
2023-10-23T08:28:18.576Z,14.30
2023-10-23T08:30:45.231Z,23.40
2023-10-23T08:33:11.811Z,29.05
2023-10-23T08:35:38.483Z,26.83
2023-10-23T08:38:05.754Z,28.30
2023-10-23T08:40:32.873Z,24.70
2023-10-23T08:43:00.492Z,32.17
2023-10-23T08:45:27.102Z,34.42
2023-10-23T08:47:53.738Z,33.33
2023-10-23T08:50:20.567Z,31.88
2023-10-23T08:52:54.247Z,22.30
2023-10-23T08:55:22.574Z,16.27
2023-10-23T08:57:54.353Z,21.70
2023-10-23T09:00:23.860Z,19.20
2023-10-23T09:02:52.086Z,19.38
2023-10-23T09:05:22.154Z,22.67
2023-10-23T09:07:49.718Z,21.35
2023-10-23T09:10:16.423Z,23.55
2023-10-23T09:12:43.313Z,20.15
2023-10-23T09:15:15.069Z,23.23
2023-10-23T09:17:42.946Z,22.37
2023-10-23T09:20:19.841Z,21.42
2023-10-23T09:22:49.740Z,25.67
2023-10-23T09:25:26.390Z,24.10
2023-10-23T09:27:53.508Z,18.70
2023-10-23T09:30:23.059Z,18.47
2023-10-23T09:32:54.242Z,22.33
2023-10-23T09:35:25.053Z,22.20
2023-10-23T09:37:52.014Z,22.55
2023-10-23T09:40:18.857Z,19.92
2023-10-23T09:42:46.175Z,24.90
2023-10-23T09:45:13.694Z,22.52
2023-10-23T09:47:41.064Z,19.70
2023-10-23T09:50:08.833Z,19.27
2023-10-23T09:52:37.004Z,19.35
2023-10-23T09:55:08.176Z,18.97
2023-10-23T09:57:36.678Z,22.75
2023-10-23T10:00:12.123Z,20.05
2023-10-23T10:02:39.798Z,17.17
2023-10-23T10:05:09.271Z,16.35
2023-10-23T10:07:54.334Z,16.77
2023-10-23T10:10:22.040Z,17.35
2023-10-23T10:12:50.063Z,21.05
2023-10-23T10:15:17.294Z,16.10
2023-10-23T10:17:46.528Z,18.08
2023-10-23T10:20:13.204Z,15.13
2023-10-23T10:22:42.647Z,15.93
2023-10-23T10:25:11.257Z,19.40
2023-10-23T10:27:37.874Z,15.13
2023-10-23T10:30:06.617Z,16.02
2023-10-23T10:32:34.550Z,18.57
2023-10-23T10:35:41.851Z,16.67
2023-10-23T10:38:14.095Z,18.15
2023-10-23T10:41:04.302Z,15.73
2023-10-23T10:43:34.502Z,17.02
2023-10-23T10:46:03.325Z,18.20
2023-10-23T10:48:44.984Z,14.23
2023-10-23T10:51:16.251Z,15.40
2023-10-23T10:53:42.717Z,17.83
2023-10-23T10:56:10.613Z,15.32
2023-10-23T10:58:44.146Z,17.80
2023-10-23T11:01:11.449Z,16.07
2023-10-23T11:03:38.506Z,15.43
2023-10-23T11:06:06.976Z,12.93
2023-10-23T11:08:33.758Z,13.82
2023-10-23T11:11:05.923Z,13.35
2023-10-23T11:13:33.363Z,12.57
2023-10-23T11:16:00.546Z,14.55
2023-10-23T11:18:29.035Z,14.68
2023-10-23T11:21:01.178Z,14.60
2023-10-23T11:23:31.529Z,12.85
2023-10-23T11:25:58.435Z,11.60
2023-10-23T11:28:25.651Z,15.05
2023-10-23T11:30:58.707Z,11.75
2023-10-23T11:33:25.392Z,11.65
2023-10-23T11:35:53.449Z,13.07
2023-10-23T11:38:22.411Z,15.40
2023-10-23T11:40:49.444Z,12.45
2023-10-23T11:43:17.093Z,12.82
2023-10-23T11:45:45.605Z,13.23
2023-10-23T11:48:13.334Z,13.05
2023-10-23T11:50:43.612Z,10.77
2023-10-23T11:53:10.480Z,11.85
2023-10-23T11:55:38.526Z,15.05
2023-10-23T11:58:05.440Z,13.27
2023-10-23T12:00:35.036Z,13.15
2023-10-23T12:03:02.176Z,14.33
2023-10-23T12:05:28.752Z,13.15
2023-10-23T12:07:56.863Z,12.05
2023-10-23T12:10:27.460Z,13.50
2023-10-23T12:12:55.863Z,12.18
2023-10-23T12:15:24.638Z,12.30
2023-10-23T12:17:54.425Z,13.95
2023-10-23T12:20:23.251Z,13.10
2023-10-23T12:22:51.309Z,12.38
2023-10-23T12:25:18.280Z,12.13
2023-10-23T12:27:44.833Z,15.10
2023-10-23T12:30:14.240Z,18.67
2023-10-23T12:33:16.425Z,16.95
2023-10-23T12:35:32.837Z,16.85
2023-10-23T12:37:59.509Z,14.80
2023-10-23T12:40:30.162Z,16.67
2023-10-23T12:42:59.067Z,19.85
2023-10-23T12:45:25.653Z,15.27
2023-10-23T12:47:52.220Z,16.45
2023-10-23T12:50:19.027Z,14.30
2023-10-23T12:52:48.501Z,16.93
2023-10-23T12:55:16.022Z,15.63
2023-10-23T12:57:42.916Z,14.60
2023-10-23T13:00:10.308Z,13.85
2023-10-23T13:02:36.920Z,13.77
2023-10-23T13:05:04.102Z,13.27
2023-10-23T13:07:30.984Z,15.75
2023-10-23T13:09:57.725Z,12.50
2023-10-23T13:12:24.269Z,14.02
2023-10-23T13:14:50.661Z,16.17
2023-10-23T13:17:17.152Z,15.40
2023-10-23T13:19:43.836Z,15.00
2023-10-23T13:22:15.561Z,15.20
2023-10-23T13:24:43.016Z,15.43
2023-10-23T13:27:13.690Z,19.20
2023-10-23T13:29:40.477Z,17.17
2023-10-23T13:32:07.143Z,17.48
2023-10-23T13:34:33.567Z,22.77
2023-10-23T13:37:00.048Z,18.92
2023-10-23T13:39:26.870Z,20.42
2023-10-23T13:41:54.263Z,21.63
2023-10-23T13:44:20.933Z,21.27
2023-10-23T13:46:47.546Z,23.70
2023-10-23T13:49:14.081Z,18.90
2023-10-23T13:51:40.810Z,21.75
2023-10-23T13:54:07.281Z,18.57
2023-10-23T13:56:33.799Z,20.10
2023-10-23T13:59:00.422Z,21.13
2023-10-23T14:01:27.529Z,17.63
2023-10-23T14:03:54.735Z,22.40
2023-10-23T14:06:21.364Z,17.53
2023-10-23T14:09:41.386Z,18.88
2023-10-23T14:11:59.225Z,22.42
2023-10-23T14:14:22.471Z,29.92
2023-10-23T14:16:49.935Z,16.45
2023-10-23T14:19:25.865Z,20.53
2023-10-23T14:22:00.676Z,17.55
2023-10-23T14:24:27.493Z,14.85
2023-10-23T14:26:54.505Z,16.27
2023-10-23T14:29:21.491Z,18.98
2023-10-23T14:31:48.950Z,18.27
2023-10-23T14:34:15.568Z,18.77
2023-10-23T14:36:42.598Z,24.80
2023-10-23T14:39:09.145Z,19.73
2023-10-23T14:41:35.649Z,18.30
2023-10-23T14:44:02.421Z,17.10
2023-10-23T14:46:29.114Z,23.33
2023-10-23T14:48:55.967Z,18.55
2023-10-23T14:51:22.576Z,24.35
2023-10-23T14:53:51.253Z,21.97
2023-10-23T14:56:17.918Z,21.13
2023-10-23T14:58:44.317Z,20.92
2023-10-23T15:01:11.084Z,23.13
2023-10-23T15:03:42.472Z,21.60
2023-10-23T15:06:13.219Z,23.48
2023-10-23T15:08:40.422Z,23.17
2023-10-23T15:11:07.012Z,20.15
2023-10-23T15:13:33.649Z,25.33
2023-10-23T15:16:03.935Z,19.83
2023-10-23T15:18:31.620Z,17.83
2023-10-23T15:21:07.833Z,27.37
2023-10-23T15:23:34.927Z,20.38
2023-10-23T15:26:01.952Z,22.45
2023-10-23T15:28:28.511Z,22.80
2023-10-23T15:31:03.110Z,20.08
2023-10-23T15:33:30.264Z,18.03
2023-10-23T15:35:58.960Z,21.95
2023-10-23T15:38:30.416Z,19.98
2023-10-23T15:41:09.336Z,22.73
2023-10-23T15:43:37.720Z,23.30
2023-10-23T15:46:05.264Z,18.37
2023-10-23T15:48:31.952Z,24.83
2023-10-23T15:50:59.723Z,19.92
2023-10-23T15:53:29.959Z,20.15
2023-10-23T15:56:01.566Z,19.00
2023-10-23T15:58:28.365Z,21.73
2023-10-23T16:00:56.859Z,21.17
2023-10-23T16:03:24.326Z,19.55
2023-10-23T16:05:51.712Z,17.63
2023-10-23T16:08:18.987Z,19.75
2023-10-23T16:10:50.008Z,18.30
2023-10-23T16:13:18.449Z,18.33
2023-10-23T16:15:46.213Z,20.60
2023-10-23T16:18:15.002Z,14.82
2023-10-23T16:20:43.626Z,17.63
2023-10-23T16:23:11.704Z,17.93
2023-10-23T16:25:41.320Z,19.38
2023-10-23T16:28:09.295Z,15.00
2023-10-23T16:30:36.620Z,20.33
2023-10-23T16:33:03.996Z,16.13
2023-10-23T16:35:30.729Z,17.53
2023-10-23T16:37:57.228Z,17.63
2023-10-23T16:40:23.793Z,21.17
2023-10-23T16:42:50.434Z,18.60
2023-10-23T16:45:16.854Z,17.25
2023-10-23T16:47:43.340Z,18.10
2023-10-23T16:50:10.409Z,17.17
2023-10-23T16:52:37.504Z,18.02
2023-10-23T16:55:05.961Z,17.75
2023-10-23T16:57:33.179Z,17.73
2023-10-23T17:00:00.016Z,18.60
2023-10-23T17:02:27.600Z,17.73
2023-10-23T17:04:55.066Z,20.33
2023-10-23T17:07:21.573Z,20.60
2023-10-23T17:09:48.106Z,19.13
2023-10-23T17:12:15.471Z,16.10
2023-10-23T17:14:41.906Z,16.80
2023-10-23T17:17:09.505Z,16.30
2023-10-23T17:19:36.406Z,17.15
2023-10-23T17:22:03.113Z,17.10
2023-10-23T17:24:30.105Z,18.03
2023-10-23T17:26:56.520Z,18.98
2023-10-23T17:29:23.039Z,19.40
2023-10-23T17:31:53.338Z,17.30
2023-10-23T17:34:20.573Z,21.58
2023-10-23T17:36:47.280Z,20.33
2023-10-23T17:39:13.830Z,18.05
2023-10-23T17:41:40.244Z,18.48
2023-10-23T17:44:06.854Z,18.98
2023-10-23T17:46:36.318Z,20.25
2023-10-23T17:49:03.443Z,17.90
2023-10-23T17:51:29.972Z,18.55
2023-10-23T17:54:04.927Z,18.35
2023-10-23T17:56:36.699Z,19.42
2023-10-23T17:59:03.769Z,21.23
2023-10-23T18:01:30.542Z,20.53
2023-10-23T18:03:57.082Z,20.10
2023-10-23T18:06:23.936Z,20.48
2023-10-23T18:08:50.503Z,22.88
2023-10-23T18:11:17.068Z,23.15
2023-10-23T18:13:44.934Z,20.67
2023-10-23T18:16:14.834Z,20.88
2023-10-23T18:18:41.735Z,20.05
2023-10-23T18:21:08.366Z,19.60
2023-10-23T18:23:35.216Z,20.30
2023-10-23T18:26:01.913Z,21.60
2023-10-23T18:28:29.537Z,20.17
2023-10-23T18:31:03.443Z,19.05
2023-10-23T18:33:30.273Z,21.77
2023-10-23T18:36:02.154Z,18.42
2023-10-23T18:38:28.930Z,21.63
2023-10-23T18:40:55.885Z,21.92
2023-10-23T18:43:24.195Z,22.38
2023-10-23T18:45:50.726Z,21.65
2023-10-23T18:48:17.390Z,22.02
2023-10-23T18:50:44.195Z,21.43
2023-10-23T18:53:10.725Z,22.70
2023-10-23T18:55:37.242Z,24.83
2023-10-23T18:58:03.818Z,25.95
2023-10-23T19:00:30.404Z,23.95
2023-10-23T19:02:56.948Z,21.07
2023-10-23T19:05:23.448Z,21.25
2023-10-23T19:07:50.268Z,21.33
2023-10-23T19:10:16.921Z,19.50
2023-10-23T19:12:43.375Z,21.48
2023-10-23T19:15:10.248Z,20.50
2023-10-23T19:17:41.120Z,21.58
2023-10-23T19:20:09.226Z,22.45
2023-10-23T19:22:36.913Z,21.27
2023-10-23T19:25:04.905Z,19.83
2023-10-23T19:27:32.057Z,19.77
2023-10-23T19:29:58.734Z,21.50
2023-10-23T19:32:25.411Z,26.52
2023-10-23T19:34:52.107Z,22.45
2023-10-23T19:37:18.898Z,24.45
2023-10-23T19:39:45.761Z,21.87
2023-10-23T19:42:17.370Z,22.38
2023-10-23T19:44:44.776Z,23.38
2023-10-23T19:47:15.078Z,21.55
2023-10-23T19:49:45.762Z,22.73
2023-10-23T19:52:15.387Z,22.13
2023-10-23T19:54:43.360Z,20.83
2023-10-23T19:57:15.065Z,24.13
2023-10-23T19:59:43.903Z,21.05
2023-10-23T20:02:10.735Z,23.40
2023-10-23T20:04:37.915Z,20.73
2023-10-23T20:07:04.547Z,23.48
2023-10-23T20:09:31.137Z,20.23
2023-10-23T20:11:57.659Z,19.33
2023-10-23T20:14:24.283Z,20.00
2023-10-23T20:16:50.854Z,19.53
2023-10-23T20:19:17.488Z,21.00
2023-10-23T20:21:44.324Z,20.70
2023-10-23T20:24:10.821Z,18.60
2023-10-23T20:26:40.092Z,17.40
2023-10-23T20:29:06.628Z,18.33
2023-10-23T20:31:33.289Z,20.10
2023-10-23T20:36:27.116Z,21.48
2023-10-23T20:38:53.558Z,22.10
2023-10-23T20:41:20.173Z,20.37
2023-10-23T20:43:47.833Z,22.25
2023-10-23T20:46:14.680Z,20.70
2023-10-23T20:48:41.218Z,21.98
2023-10-23T20:51:07.832Z,22.20
2023-10-23T20:53:34.311Z,20.87
2023-10-23T20:56:04.420Z,24.67
2023-10-23T20:58:31.937Z,21.00
2023-10-23T21:01:05.309Z,20.50
2023-10-23T21:03:32.128Z,18.67
2023-10-23T21:06:05.391Z,21.67
2023-10-23T21:08:39.355Z,19.25
2023-10-23T21:11:06.819Z,23.95
2023-10-23T21:13:34.005Z,19.40
2023-10-23T21:16:01.331Z,19.80
2023-10-23T21:18:27.877Z,19.83
2023-10-23T21:20:57.173Z,22.33
2023-10-23T21:23:23.877Z,17.13
2023-10-23T21:25:53.279Z,17.77
2023-10-23T21:28:24.185Z,16.58
2023-10-23T21:30:50.628Z,18.23
2023-10-23T21:33:17.048Z,18.02
2023-10-23T21:35:43.519Z,17.05
2023-10-23T21:38:09.992Z,16.60
2023-10-23T21:40:36.647Z,15.80
2023-10-23T21:43:04.881Z,15.43
2023-10-23T21:45:33.321Z,14.23
2023-10-23T21:47:59.934Z,15.20
2023-10-23T21:50:26.673Z,15.30
2023-10-23T21:52:53.450Z,14.82
2023-10-23T21:55:23.520Z,19.87
2023-10-23T21:57:51.348Z,13.40
2023-10-23T22:00:30.434Z,15.15
2023-10-23T22:02:58.131Z,21.17
2023-10-23T22:05:24.962Z,17.10
2023-10-23T22:07:52.552Z,16.43
2023-10-23T22:10:19.991Z,16.48
2023-10-23T22:12:47.128Z,17.05
2023-10-23T22:15:13.774Z,15.10
2023-10-23T22:17:40.430Z,14.07
2023-10-23T22:20:07.827Z,14.13
2023-10-23T22:22:34.308Z,15.07
2023-10-23T22:25:00.845Z,14.80
2023-10-23T22:27:27.381Z,11.30
2023-10-23T22:29:53.969Z,12.23
2023-10-23T22:32:20.435Z,11.30
2023-10-23T22:34:47.041Z,12.38
2023-10-23T22:38:01.023Z,12.35
2023-10-23T22:40:00.355Z,12.10
2023-10-23T22:42:27.314Z,11.23
2023-10-23T22:44:53.752Z,10.10
2023-10-23T22:47:20.309Z,10.63
2023-10-23T22:49:47.197Z,11.13
2023-10-23T22:52:13.891Z,9.80
2023-10-23T22:54:41.336Z,10.77
2023-10-23T22:57:08.700Z,11.97
2023-10-23T22:59:35.503Z,9.70
2023-10-23T23:02:02.381Z,10.95
2023-10-23T23:04:29.477Z,8.48
2023-10-23T23:06:59.689Z,9.43
2023-10-23T23:09:27.167Z,8.83
2023-10-23T23:11:54.139Z,7.25
2023-10-23T23:14:20.903Z,7.50
2023-10-23T23:16:49.567Z,6.93
2023-10-23T23:19:24.665Z,6.72
2023-10-23T23:21:54.839Z,6.97
2023-10-23T23:24:21.326Z,6.78
2023-10-23T23:26:48.081Z,6.22
2023-10-23T23:29:14.522Z,6.75
2023-10-23T23:31:41.147Z,5.70
2023-10-23T23:34:08.059Z,7.40
2023-10-23T23:36:34.535Z,6.20
2023-10-23T23:39:00.983Z,4.93
2023-10-23T23:41:27.702Z,5.47
2023-10-23T23:43:54.259Z,4.15
2023-10-23T23:46:20.804Z,4.37
2023-10-23T23:48:47.348Z,5.15
2023-10-23T23:51:13.787Z,5.05
2023-10-23T23:53:40.219Z,4.65
2023-10-23T23:56:06.840Z,4.90
2023-10-23T23:58:33.280Z,5.57
